This is the latest recevied weather packets stored in our database for station/object F4MLU-13. If no packets are shown the sender has not sent any weather packets the latest 10 day(s).
| Time | Temp. | Humidity | Pressure | Rain* | Wind** | Luminosity | Snow |
|---|---|---|---|---|---|---|---|
| 1777891230 | 20° C | 72% | - | 0 mm | - | - | - |
| 1777887680 | 21.67° C | 67% | - | 0 mm | - | - | - |
| 1777885229 | 20° C | 71% | - | 0 mm | - | - | - |
| 1777881029 | 17.22° C | 87% | - | 0 mm | - | - | - |
| 1777876230 | 13.33° C | 99% | - | 0 mm | - | - | - |
| 1777872030 | 12.78° C | 99% | - | 2.03 mm | - | - | - |
| 1777870230 | 12.22° C | 99% | - | 0 mm | - | - | - |
| 1777867230 | 12.78° C | 99% | - | 0 mm | - | - | - |
| 1777866030 | 12.22° C | 99% | - | 0 mm | - | - | - |
| 1777858230 | 11.11° C | 99% | - | 0 mm | - | - | - |
| 1777855230 | 12.22° C | 99% | - | 0 mm | - | - | - |
| 1777851630 | 12.22° C | 99% | - | 0 mm | - | - | - |
| 1777849830 | 12.22° C | 99% | - | 0 mm | - | - | - |
| 1777849251 | 12.22° C | 99% | - | 0 mm | - | - | - |
| 1777845631 | 13.33° C | 99% | - | 0 mm | - | - | - |
| 1777840831 | 13.33° C | 98% | - | 0 mm | - | - | - |
| 1777840231 | 13.33° C | 98% | - | 0 mm | - | - | - |
| 1777836631 | 13.89° C | 95% | - | 4.06 mm | - | - | - |
| 1777834231 | 16.67° C | 85% | - | 0 mm | - | - | - |
| 1777828831 | 17.78° C | 86% | - | 0 mm | - | - | - |
| 1777828261 | 18.33° C | 86% | - | 0 mm | - | - | - |
| 1777825831 | 18.89° C | 85% | - | 0 mm | - | - | - |
| 1777824031 | 18.89° C | 83% | - | 0 mm | - | - | - |
| 1777821631 | 20° C | 77% | - | 0 mm | - | - | - |
| 1777816832 | 21.67° C | 69% | - | 0 mm | - | - | - |
* Rain latest hour (hover to see other rain measurements)
** Current wind speed in m/s (hover to see current wind gust speed)